createdAt,value
2017-08-06T00:00:17.044Z,3.20
2017-08-06T00:02:43.455Z,4.33
2017-08-06T00:05:09.867Z,4.30
2017-08-06T00:07:36.267Z,4.33
2017-08-06T00:10:02.758Z,4.80
2017-08-06T00:12:29.196Z,4.30
2017-08-06T00:14:55.576Z,4.57
2017-08-06T00:17:22.019Z,3.93
2017-08-06T00:19:48.456Z,4.10
2017-08-06T00:22:14.864Z,4.53
2017-08-06T00:24:41.277Z,4.50
2017-08-06T00:27:07.684Z,4.23
2017-08-06T00:29:34.101Z,4.90
2017-08-06T00:32:00.487Z,3.90
2017-08-06T00:34:26.890Z,4.73
2017-08-06T00:36:53.311Z,4.50
2017-08-06T00:39:19.689Z,4.30
2017-08-06T00:41:46.108Z,3.90
2017-08-06T00:44:12.533Z,5.90
2017-08-06T00:46:38.891Z,5.70
2017-08-06T00:49:05.335Z,5.43
2017-08-06T00:51:31.714Z,4.97
2017-08-06T00:53:58.127Z,4.87
2017-08-06T00:56:24.568Z,4.80
2017-08-06T00:58:50.957Z,5.43
2017-08-06T01:01:18.111Z,4.93
2017-08-06T01:03:44.622Z,4.40
2017-08-06T01:06:11.011Z,4.47
2017-08-06T01:08:38.208Z,3.93
2017-08-06T01:11:04.667Z,4.30
2017-08-06T01:13:31.853Z,3.63
2017-08-06T01:15:58.316Z,3.40
2017-08-06T01:18:24.767Z,4.40
2017-08-06T01:20:51.189Z,4.40
2017-08-06T01:23:18.700Z,4.60
2017-08-06T01:25:45.125Z,4.53
2017-08-06T01:28:12.400Z,4.53
2017-08-06T01:30:38.876Z,4.50
2017-08-06T01:33:05.322Z,4.00
2017-08-06T01:35:31.744Z,5.20
2017-08-06T01:37:58.146Z,4.53
2017-08-06T01:40:24.569Z,5.20
2017-08-06T01:42:50.975Z,5.57
2017-08-06T01:45:17.390Z,4.43
2017-08-06T01:47:43.843Z,4.20
2017-08-06T01:50:10.331Z,4.70
2017-08-06T01:52:36.743Z,5.27
2017-08-06T01:55:03.193Z,4.80
2017-08-06T01:57:30.639Z,4.40
2017-08-06T01:59:57.003Z,4.63
2017-08-06T02:02:23.411Z,4.70
2017-08-06T02:04:49.839Z,3.73
2017-08-06T02:07:16.227Z,4.40
2017-08-06T02:09:42.699Z,4.47
2017-08-06T02:12:09.086Z,4.60
2017-08-06T02:14:36.246Z,4.90
2017-08-06T02:17:02.647Z,3.40
2017-08-06T02:19:29.068Z,3.67
2017-08-06T02:21:55.439Z,4.60
2017-08-06T02:24:21.839Z,5.00
2017-08-06T02:26:48.264Z,4.07
2017-08-06T02:29:14.651Z,4.40
2017-08-06T02:31:41.067Z,5.07
2017-08-06T02:34:07.467Z,4.23
2017-08-06T02:36:34.583Z,5.00
2017-08-06T02:39:01.810Z,4.90
2017-08-06T02:41:28.208Z,5.03
2017-08-06T02:43:54.610Z,5.10
2017-08-06T02:46:21.056Z,5.33
2017-08-06T02:48:47.432Z,5.53
2017-08-06T02:51:13.860Z,5.40
2017-08-06T02:53:40.286Z,5.30
2017-08-06T02:56:06.695Z,4.70
2017-08-06T02:58:33.091Z,5.43
2017-08-06T03:00:59.491Z,4.70
2017-08-06T03:03:25.880Z,7.23
2017-08-06T03:05:52.335Z,5.30
2017-08-06T03:08:18.715Z,5.70
2017-08-06T03:10:45.092Z,5.40
2017-08-06T03:13:11.556Z,5.03
2017-08-06T03:15:37.963Z,5.00
2017-08-06T03:18:04.363Z,4.90
2017-08-06T03:20:30.723Z,6.10
2017-08-06T03:22:57.195Z,6.97
2017-08-06T03:25:23.534Z,5.77
2017-08-06T03:27:49.927Z,5.30
2017-08-06T03:30:16.346Z,6.80
2017-08-06T03:32:42.770Z,6.57
2017-08-06T03:35:09.243Z,5.73
2017-08-06T03:37:35.655Z,5.80
2017-08-06T03:40:02.051Z,5.97
2017-08-06T03:42:28.532Z,5.47
2017-08-06T03:44:55.963Z,5.63
2017-08-06T03:47:22.364Z,5.13
2017-08-06T03:49:48.815Z,5.30
2017-08-06T03:52:15.219Z,5.70
2017-08-06T03:54:41.579Z,6.73
2017-08-06T03:57:07.999Z,4.83
2017-08-06T03:59:34.422Z,4.47
2017-08-06T04:02:00.799Z,4.80
2017-08-06T04:04:27.195Z,4.40
2017-08-06T04:06:53.616Z,4.97
2017-08-06T04:09:20.038Z,4.20
2017-08-06T04:11:46.512Z,4.17
2017-08-06T04:14:12.949Z,4.60
2017-08-06T04:16:39.427Z,4.17
2017-08-06T04:19:05.839Z,4.43
2017-08-06T04:21:32.339Z,4.90
2017-08-06T04:23:58.763Z,4.60
2017-08-06T04:26:25.132Z,4.43
2017-08-06T04:28:51.539Z,4.30
2017-08-06T04:31:19.059Z,4.87
2017-08-06T04:33:46.222Z,5.10
2017-08-06T04:36:12.583Z,4.73
2017-08-06T04:38:38.996Z,4.70
2017-08-06T04:41:05.431Z,4.77
2017-08-06T04:43:31.859Z,4.10
2017-08-06T04:45:58.276Z,5.50
2017-08-06T04:48:24.667Z,6.90
2017-08-06T04:50:51.096Z,6.87
2017-08-06T04:53:17.487Z,9.00
2017-08-06T04:55:43.931Z,8.10
2017-08-06T04:58:10.375Z,8.43
2017-08-06T05:00:36.813Z,9.00
2017-08-06T05:03:03.198Z,9.00
2017-08-06T05:05:29.659Z,9.73
2017-08-06T05:07:56.064Z,9.70
2017-08-06T05:10:22.427Z,9.80
2017-08-06T05:12:48.836Z,10.50
2017-08-06T05:15:15.255Z,10.33
2017-08-06T05:17:41.701Z,9.47
2017-08-06T05:20:08.107Z,9.27
2017-08-06T05:22:34.574Z,11.10
2017-08-06T05:25:01.008Z,10.13
2017-08-06T05:27:27.396Z,10.17
2017-08-06T05:29:53.895Z,10.23
2017-08-06T05:32:20.319Z,10.90
2017-08-06T05:34:46.694Z,11.40
2017-08-06T05:37:13.191Z,10.73
2017-08-06T05:39:39.607Z,11.80
2017-08-06T05:42:06.037Z,12.17
2017-08-06T05:44:32.494Z,11.37
2017-08-06T05:46:58.956Z,12.60
2017-08-06T05:49:25.359Z,11.60
2017-08-06T05:51:51.782Z,14.07
2017-08-06T05:54:18.208Z,12.90
2017-08-06T05:56:44.631Z,14.13
2017-08-06T05:59:11.392Z,13.20
2017-08-06T06:01:38.592Z,12.70
2017-08-06T06:04:04.987Z,13.43
2017-08-06T06:06:31.365Z,13.30
2017-08-06T06:08:57.786Z,13.13
2017-08-06T06:11:24.203Z,13.13
2017-08-06T06:13:51.369Z,13.90
2017-08-06T06:16:17.757Z,13.43
2017-08-06T06:18:44.163Z,15.43
2017-08-06T06:21:10.583Z,12.80
2017-08-06T06:23:37.067Z,14.30
2017-08-06T06:26:03.479Z,11.77
2017-08-06T06:28:29.895Z,13.77
2017-08-06T06:30:56.331Z,12.83
2017-08-06T06:33:22.750Z,12.97
2017-08-06T06:35:50.185Z,13.03
2017-08-06T06:38:16.635Z,13.90
2017-08-06T06:40:43.045Z,12.43
2017-08-06T06:43:09.468Z,13.17
2017-08-06T06:45:35.916Z,13.87
2017-08-06T06:48:02.401Z,12.90
2017-08-06T06:50:28.786Z,14.00
2017-08-06T06:52:55.219Z,12.50
2017-08-06T06:55:21.628Z,13.97
2017-08-06T06:57:48.034Z,14.03
2017-08-06T07:00:14.434Z,13.07
2017-08-06T07:02:40.849Z,14.60
2017-08-06T07:05:07.267Z,13.30
2017-08-06T07:07:33.647Z,12.57
2017-08-06T07:10:00.064Z,11.90
2017-08-06T07:12:26.496Z,12.90
2017-08-06T07:14:52.879Z,11.37
2017-08-06T07:17:19.347Z,11.83
2017-08-06T07:19:46.772Z,11.67
2017-08-06T07:22:13.155Z,11.23
2017-08-06T07:24:39.684Z,11.70
2017-08-06T07:27:06.089Z,12.80
2017-08-06T07:29:33.597Z,12.10
2017-08-06T07:32:00.004Z,11.70
2017-08-06T07:34:26.339Z,10.60
2017-08-06T07:36:52.727Z,10.10
2017-08-06T07:39:19.127Z,10.77
2017-08-06T07:41:45.547Z,10.67
2017-08-06T07:44:12.005Z,10.30
2017-08-06T07:46:38.421Z,11.07
2017-08-06T07:49:04.794Z,11.90
2017-08-06T07:51:31.168Z,10.33
2017-08-06T07:53:57.579Z,8.20
2017-08-06T07:56:23.973Z,8.57
2017-08-06T07:58:50.385Z,7.87
2017-08-06T08:01:16.782Z,8.33
2017-08-06T08:03:43.151Z,8.67
2017-08-06T08:06:09.651Z,7.87
2017-08-06T08:08:36.004Z,7.90
2017-08-06T08:11:03.127Z,6.70
2017-08-06T08:13:30.268Z,7.60
2017-08-06T08:15:56.732Z,7.70
2017-08-06T08:18:24.169Z,6.80
2017-08-06T08:20:50.554Z,6.00
2017-08-06T08:23:16.911Z,6.47
2017-08-06T08:25:43.276Z,7.30
2017-08-06T08:28:10.408Z,5.90
2017-08-06T08:30:36.853Z,6.37
2017-08-06T08:33:03.388Z,6.10
2017-08-06T08:35:29.793Z,4.30
2017-08-06T08:37:56.227Z,4.50
2017-08-06T08:40:22.586Z,4.70
2017-08-06T08:42:48.981Z,5.27
2017-08-06T08:45:15.423Z,5.07
2017-08-06T08:47:41.845Z,4.30
2017-08-06T08:50:09.362Z,4.30
2017-08-06T08:52:35.784Z,5.07
2017-08-06T08:55:02.307Z,4.10
2017-08-06T08:57:29.431Z,4.90
2017-08-06T08:59:56.574Z,4.50
2017-08-06T09:02:24.836Z,3.23
2017-08-06T09:04:51.976Z,3.90
2017-08-06T09:07:18.409Z,4.90
2017-08-06T09:09:44.795Z,4.63
2017-08-06T09:12:11.205Z,3.80
2017-08-06T09:14:37.583Z,3.63
2017-08-06T09:17:03.962Z,3.43
2017-08-06T09:19:31.060Z,3.50
2017-08-06T09:21:57.437Z,2.27
2017-08-06T09:24:23.912Z,3.10
2017-08-06T09:26:50.266Z,2.57
2017-08-06T09:29:16.665Z,2.03
2017-08-06T09:31:43.811Z,2.60
2017-08-06T09:34:10.931Z,3.20
2017-08-06T09:36:37.335Z,3.10
2017-08-06T09:39:03.801Z,2.80
2017-08-06T09:41:30.175Z,2.83
2017-08-06T09:43:56.631Z,2.17
2017-08-06T09:46:23.043Z,2.60
2017-08-06T09:48:49.408Z,2.30
2017-08-06T09:51:16.511Z,2.73
2017-08-06T09:53:42.925Z,3.43
2017-08-06T09:56:09.267Z,2.90
2017-08-06T09:58:36.415Z,3.17
2017-08-06T10:01:02.835Z,1.90
2017-08-06T10:03:29.295Z,2.60
2017-08-06T10:05:55.681Z,2.65
2017-08-06T10:08:22.129Z,2.53
2017-08-06T10:10:48.463Z,3.13
2017-08-06T10:13:14.835Z,2.90
2017-08-06T10:15:41.243Z,2.13
2017-08-06T10:18:08.371Z,2.37
2017-08-06T10:20:34.759Z,2.10
2017-08-06T10:23:01.140Z,2.70
2017-08-06T10:25:27.556Z,2.33
2017-08-06T10:27:53.949Z,2.13
2017-08-06T10:30:20.811Z,2.53
2017-08-06T10:32:47.174Z,2.33
2017-08-06T10:35:13.552Z,2.63
2017-08-06T10:37:39.954Z,2.90
2017-08-06T10:40:06.373Z,3.70
2017-08-06T10:42:32.785Z,2.50
2017-08-06T10:44:59.212Z,2.50
2017-08-06T10:47:25.618Z,2.57
2017-08-06T10:49:52.039Z,2.70
2017-08-06T10:52:18.488Z,3.17
2017-08-06T10:54:44.870Z,2.30
2017-08-06T10:57:11.284Z,2.60
2017-08-06T10:59:37.715Z,2.40
2017-08-06T11:02:04.071Z,2.80
2017-08-06T11:04:30.456Z,2.27
2017-08-06T11:06:56.889Z,2.30
2017-08-06T11:09:23.315Z,3.30
2017-08-06T11:11:49.737Z,2.33
2017-08-06T11:14:16.168Z,2.63
2017-08-06T11:16:42.529Z,2.20
2017-08-06T11:19:08.939Z,2.00
2017-08-06T11:21:35.380Z,2.00
2017-08-06T11:24:01.796Z,2.80
2017-08-06T11:26:28.181Z,2.40
2017-08-06T11:28:54.607Z,2.33
2017-08-06T11:31:20.989Z,2.67
2017-08-06T11:33:47.400Z,2.43
2017-08-06T11:36:13.809Z,2.60
2017-08-06T11:38:40.206Z,2.77
2017-08-06T11:41:08.428Z,1.97
2017-08-06T11:43:34.835Z,2.07
2017-08-06T11:46:01.212Z,3.00
2017-08-06T11:48:27.608Z,3.27
2017-08-06T11:50:54.211Z,2.40
2017-08-06T11:53:20.608Z,2.67
2017-08-06T11:55:47.055Z,2.80
2017-08-06T11:58:13.475Z,2.77
2017-08-06T12:00:39.862Z,2.83
2017-08-06T12:03:06.211Z,2.03
2017-08-06T12:05:32.592Z,2.90
2017-08-06T12:07:58.970Z,1.97
2017-08-06T12:10:25.427Z,2.13
2017-08-06T12:12:51.868Z,2.90
2017-08-06T12:15:18.234Z,2.70
2017-08-06T12:17:44.620Z,2.83
2017-08-06T12:20:11.027Z,2.13
2017-08-06T12:22:37.416Z,2.20
2017-08-06T12:25:03.810Z,2.27
2017-08-06T12:27:30.205Z,2.20
2017-08-06T12:29:57.331Z,2.37
2017-08-06T12:32:24.459Z,2.03
2017-08-06T12:34:50.844Z,2.40
2017-08-06T12:37:17.199Z,2.80
2017-08-06T12:39:44.378Z,3.20
2017-08-06T12:42:10.850Z,2.50
2017-08-06T12:44:37.215Z,1.90
2017-08-06T12:47:03.600Z,1.57
2017-08-06T12:49:30.048Z,2.37
2017-08-06T12:51:56.490Z,1.93
2017-08-06T12:54:22.916Z,2.20
2017-08-06T12:56:49.279Z,1.80
2017-08-06T12:59:16.393Z,1.83
2017-08-06T13:01:43.503Z,2.20
2017-08-06T13:04:09.951Z,2.13
2017-08-06T13:06:36.336Z,2.13
2017-08-06T13:09:02.788Z,1.87
2017-08-06T13:11:29.203Z,2.33
2017-08-06T13:13:55.644Z,1.70
2017-08-06T13:16:22.007Z,2.43
2017-08-06T13:18:48.375Z,1.90
2017-08-06T13:21:15.511Z,2.13
2017-08-06T13:23:41.911Z,1.77
2017-08-06T13:26:08.352Z,1.77
2017-08-06T13:28:34.707Z,2.27
2017-08-06T13:31:01.067Z,2.17
2017-08-06T13:33:27.527Z,2.37
2017-08-06T13:35:53.907Z,2.50
2017-08-06T13:38:20.271Z,2.00
2017-08-06T13:40:46.670Z,1.20
2017-08-06T13:43:13.062Z,1.30
2017-08-06T13:45:39.451Z,1.37
2017-08-06T13:48:05.863Z,1.27
2017-08-06T13:50:32.219Z,1.20
2017-08-06T13:52:58.610Z,1.10
2017-08-06T13:55:25.001Z,1.83
2017-08-06T13:57:51.339Z,1.50
2017-08-06T14:00:17.735Z,2.10
2017-08-06T14:02:44.115Z,1.13
2017-08-06T14:05:10.508Z,1.30
2017-08-06T14:07:36.876Z,1.30
2017-08-06T14:10:03.295Z,1.93
2017-08-06T14:12:29.852Z,1.33
2017-08-06T14:14:56.231Z,1.37
2017-08-06T14:17:22.604Z,1.50
2017-08-06T14:19:48.964Z,1.80
2017-08-06T14:22:15.347Z,1.30
2017-08-06T14:24:41.800Z,2.00
2017-08-06T14:27:08.192Z,1.50
2017-08-06T14:29:34.590Z,1.83
2017-08-06T14:32:00.954Z,1.73
2017-08-06T14:34:27.342Z,1.23
2017-08-06T14:37:03.799Z,1.80
2017-08-06T14:39:30.178Z,2.17
2017-08-06T14:41:57.643Z,1.37
2017-08-06T14:44:24.031Z,1.80
2017-08-06T14:46:51.127Z,1.70
2017-08-06T14:49:18.243Z,2.00
2017-08-06T14:51:44.623Z,1.80
2017-08-06T14:54:10.987Z,1.93
2017-08-06T14:56:37.355Z,1.87
2017-08-06T14:59:03.707Z,2.00
2017-08-06T15:01:30.051Z,2.33
2017-08-06T15:03:56.464Z,2.17
2017-08-06T15:06:22.835Z,2.43
2017-08-06T15:08:49.179Z,2.57
2017-08-06T15:11:15.559Z,1.73
2017-08-06T15:13:41.934Z,2.00
2017-08-06T15:16:09.442Z,2.10
2017-08-06T15:18:36.591Z,2.10
2017-08-06T15:21:03.006Z,2.33
2017-08-06T15:23:29.399Z,2.30
2017-08-06T15:25:55.804Z,2.50
2017-08-06T15:28:22.191Z,2.47
2017-08-06T15:30:50.411Z,2.40
2017-08-06T15:33:16.767Z,2.10
2017-08-06T15:35:43.159Z,2.90
2017-08-06T15:38:09.527Z,2.20
2017-08-06T15:40:35.940Z,1.90
2017-08-06T15:43:02.323Z,2.10
2017-08-06T15:45:28.695Z,1.80
2017-08-06T15:47:55.111Z,1.70
2017-08-06T15:50:21.491Z,1.90
2017-08-06T15:52:47.851Z,1.70
2017-08-06T15:55:14.240Z,1.70
2017-08-06T15:57:40.619Z,1.90
2017-08-06T16:00:07.763Z,1.50
2017-08-06T16:02:34.115Z,1.43
2017-08-06T16:05:00.500Z,1.40
2017-08-06T16:07:27.592Z,1.50
2017-08-06T16:09:53.992Z,1.73
2017-08-06T16:12:20.355Z,1.40
2017-08-06T16:14:46.725Z,1.27
2017-08-06T16:17:13.122Z,1.80
2017-08-06T16:19:40.483Z,1.30
2017-08-06T16:22:06.855Z,1.43
2017-08-06T16:24:34.355Z,1.43
2017-08-06T16:27:00.753Z,1.20
2017-08-06T16:29:27.155Z,1.43
2017-08-06T16:31:53.618Z,1.30
2017-08-06T16:34:20.894Z,1.33
2017-08-06T16:36:47.264Z,1.60
2017-08-06T16:39:14.406Z,1.60
2017-08-06T16:41:40.779Z,1.50
2017-08-06T16:44:07.179Z,1.60
2017-08-06T16:46:33.585Z,1.60
2017-08-06T16:48:59.970Z,1.53
2017-08-06T16:51:27.099Z,1.77
2017-08-06T16:53:53.483Z,0.97
2017-08-06T16:56:19.892Z,1.33
2017-08-06T16:58:46.307Z,2.00
2017-08-06T17:01:12.712Z,2.10
2017-08-06T17:03:39.089Z,1.80
2017-08-06T17:06:06.294Z,1.50
2017-08-06T17:08:33.455Z,1.43
2017-08-06T17:11:00.576Z,1.50
2017-08-06T17:13:26.953Z,1.60
2017-08-06T17:15:53.363Z,1.30
2017-08-06T17:18:19.787Z,1.53
2017-08-06T17:20:46.168Z,1.40
2017-08-06T17:23:12.552Z,1.30
2017-08-06T17:25:38.995Z,1.40
2017-08-06T17:28:06.079Z,1.33
2017-08-06T17:30:32.526Z,1.07
2017-08-06T17:33:01.991Z,1.40
2017-08-06T17:35:28.355Z,1.30
2017-08-06T17:37:54.739Z,1.50
2017-08-06T17:40:21.059Z,1.30
2017-08-06T17:42:47.439Z,0.93
2017-08-06T17:45:13.868Z,1.20
2017-08-06T17:47:40.239Z,1.30
2017-08-06T17:50:06.611Z,1.67
2017-08-06T17:52:33.067Z,1.80
2017-08-06T17:54:59.455Z,1.30
2017-08-06T17:57:25.852Z,1.43
2017-08-06T17:59:52.231Z,2.00
2017-08-06T18:02:18.624Z,2.20
2017-08-06T18:04:45.790Z,2.20
2017-08-06T18:07:12.173Z,1.87
2017-08-06T18:09:39.302Z,1.60
2017-08-06T18:12:06.503Z,1.87
2017-08-06T18:14:32.905Z,1.50
2017-08-06T18:16:59.283Z,1.20
2017-08-06T18:19:25.675Z,1.47
2017-08-06T18:21:52.249Z,1.43
2017-08-06T18:24:19.973Z,1.30
2017-08-06T18:26:46.775Z,1.50
2017-08-06T18:29:14.411Z,1.47
2017-08-06T18:31:41.500Z,1.80
2017-08-06T18:34:09.974Z,1.30
2017-08-06T18:36:37.842Z,1.40
2017-08-06T18:39:04.962Z,1.50
2017-08-06T18:41:32.817Z,1.40
2017-08-06T18:44:00.717Z,1.30
2017-08-06T18:46:28.601Z,1.80
2017-08-06T18:48:56.568Z,1.83
2017-08-06T18:51:25.292Z,2.50
2017-08-06T18:53:53.149Z,2.50
2017-08-06T18:56:21.147Z,2.27
2017-08-06T18:58:49.096Z,2.60
2017-08-06T19:01:16.889Z,1.93
2017-08-06T19:03:44.681Z,1.70
2017-08-06T19:06:12.632Z,2.43
2017-08-06T19:08:40.550Z,2.30
2017-08-06T19:11:08.490Z,2.00
2017-08-06T19:13:36.443Z,2.50
2017-08-06T19:16:04.305Z,2.93
2017-08-06T19:18:32.223Z,2.80
2017-08-06T19:21:00.913Z,2.30
2017-08-06T19:23:28.788Z,2.20
2017-08-06T19:25:56.820Z,2.53
2017-08-06T19:28:24.819Z,2.70
2017-08-06T19:30:52.714Z,2.60
2017-08-06T19:33:20.569Z,3.03
2017-08-06T19:35:49.297Z,2.60
2017-08-06T19:38:17.601Z,2.83
2017-08-06T19:40:45.572Z,3.07
2017-08-06T19:43:13.365Z,2.93
2017-08-06T19:45:41.227Z,2.77
2017-08-06T19:48:10.069Z,2.17
2017-08-06T19:50:38.017Z,2.77
2017-08-06T19:53:07.040Z,2.30
2017-08-06T19:55:35.132Z,2.10
2017-08-06T19:58:03.012Z,2.30
2017-08-06T20:00:30.942Z,2.50
2017-08-06T20:02:58.970Z,2.70
2017-08-06T20:05:26.789Z,2.40
2017-08-06T20:07:55.403Z,3.07
2017-08-06T20:10:23.469Z,2.13
2017-08-06T20:12:51.399Z,2.50
2017-08-06T20:15:19.291Z,2.00
2017-08-06T20:17:48.310Z,2.13
2017-08-06T20:20:16.200Z,1.83
2017-08-06T20:22:44.036Z,2.73
2017-08-06T20:25:12.244Z,2.13
2017-08-06T20:27:40.861Z,2.33
2017-08-06T20:30:08.752Z,2.47
2017-08-06T20:32:36.814Z,2.20
2017-08-06T20:35:04.663Z,2.57
2017-08-06T20:37:32.463Z,2.60
2017-08-06T20:40:00.490Z,2.17
2017-08-06T20:42:28.378Z,1.90
2017-08-06T20:44:56.276Z,2.10
2017-08-06T20:47:24.296Z,2.20
2017-08-06T20:49:52.150Z,2.43
2017-08-06T20:52:19.920Z,1.97
2017-08-06T20:54:48.655Z,1.90
2017-08-06T20:57:16.392Z,2.20
2017-08-06T20:59:43.852Z,2.20
2017-08-06T21:02:11.409Z,2.40
2017-08-06T21:04:38.952Z,1.77
2017-08-06T21:07:05.914Z,2.60
2017-08-06T21:09:32.791Z,2.07
2017-08-06T21:11:59.579Z,2.77
2017-08-06T21:14:26.345Z,3.17
2017-08-06T21:16:53.886Z,3.07
2017-08-06T21:19:20.848Z,2.47
2017-08-06T21:21:47.633Z,2.30
2017-08-06T21:24:14.926Z,1.97
2017-08-06T21:26:41.363Z,2.37
2017-08-06T21:29:08.536Z,2.07
2017-08-06T21:31:34.980Z,2.23
2017-08-06T21:34:01.353Z,2.47
2017-08-06T21:36:27.735Z,2.20
2017-08-06T21:38:54.188Z,2.17
2017-08-06T21:41:20.547Z,2.40
2017-08-06T21:43:46.939Z,2.37
2017-08-06T21:46:13.366Z,1.63
2017-08-06T21:48:39.795Z,2.67
2017-08-06T21:51:06.176Z,1.90
2017-08-06T21:53:32.571Z,1.87
2017-08-06T21:55:58.947Z,2.50
2017-08-06T21:58:25.358Z,3.13
2017-08-06T22:00:51.828Z,2.60
2017-08-06T22:03:18.219Z,2.23
2017-08-06T22:05:44.655Z,2.37
2017-08-06T22:08:11.051Z,2.33
2017-08-06T22:10:37.491Z,2.07
2017-08-06T22:13:03.856Z,2.40
2017-08-06T22:15:30.297Z,2.10
2017-08-06T22:17:56.749Z,3.03
2017-08-06T22:20:23.143Z,2.17
2017-08-06T22:22:49.527Z,4.90
2017-08-06T22:25:15.908Z,2.23
2017-08-06T22:27:42.284Z,2.27
2017-08-06T22:30:08.757Z,2.13
2017-08-06T22:32:35.150Z,2.70
2017-08-06T22:35:02.676Z,2.90
2017-08-06T22:37:29.131Z,2.40
2017-08-06T22:39:55.532Z,1.93
2017-08-06T22:42:21.908Z,2.50
2017-08-06T22:44:48.338Z,2.70
2017-08-06T22:47:14.718Z,2.23
2017-08-06T22:49:41.135Z,2.10
2017-08-06T22:52:07.583Z,2.30
2017-08-06T22:54:33.963Z,2.30
2017-08-06T22:57:00.338Z,2.53
2017-08-06T22:59:26.782Z,2.63
2017-08-06T23:01:53.694Z,1.60
2017-08-06T23:04:20.090Z,2.23
2017-08-06T23:06:46.547Z,2.47
2017-08-06T23:09:13.923Z,2.40
2017-08-06T23:11:40.290Z,2.23
2017-08-06T23:14:06.744Z,2.30
2017-08-06T23:16:33.152Z,2.70
2017-08-06T23:18:59.547Z,3.03
2017-08-06T23:21:25.992Z,2.60
2017-08-06T23:23:52.402Z,2.57
2017-08-06T23:26:18.763Z,2.57
2017-08-06T23:28:45.251Z,2.77
2017-08-06T23:31:11.662Z,2.80
2017-08-06T23:33:38.035Z,2.50
2017-08-06T23:36:04.459Z,2.90
2017-08-06T23:38:31.603Z,2.73
2017-08-06T23:40:57.981Z,2.57
2017-08-06T23:43:24.479Z,2.70
2017-08-06T23:45:50.847Z,2.63
2017-08-06T23:48:17.951Z,2.83
2017-08-06T23:50:44.363Z,2.47
2017-08-06T23:53:10.744Z,2.97
2017-08-06T23:55:37.107Z,2.40
2017-08-06T23:58:03.551Z,2.33
